createdAt,value
2024-03-11T00:00:36.820Z,7.80
2024-03-11T00:03:04.782Z,7.80
2024-03-11T00:05:32.116Z,7.90
2024-03-11T00:08:00.310Z,7.90
2024-03-11T00:10:29.195Z,7.90
2024-03-11T00:12:57.662Z,7.90
2024-03-11T00:15:25.499Z,7.90
2024-03-11T00:17:53.727Z,8.00
2024-03-11T00:20:22.205Z,8.00
2024-03-11T00:22:50.611Z,8.00
2024-03-11T00:25:17.981Z,8.10
2024-03-11T00:27:44.789Z,8.00
2024-03-11T00:30:12.908Z,8.00
2024-03-11T00:32:47.499Z,8.00
2024-03-11T00:35:16.204Z,7.90
2024-03-11T00:37:43.545Z,8.00
2024-03-11T00:40:11.524Z,8.00
2024-03-11T00:42:42.395Z,8.00
2024-03-11T00:45:13.594Z,7.90
2024-03-11T00:47:43.160Z,7.90
2024-03-11T00:50:14.835Z,7.90
2024-03-11T00:52:46.456Z,8.00
2024-03-11T00:55:14.204Z,8.00
2024-03-11T00:57:42.935Z,8.00
2024-03-11T01:00:13.439Z,8.00
2024-03-11T01:02:41.979Z,8.00
2024-03-11T01:05:10.034Z,8.00
2024-03-11T01:07:44.965Z,7.90
2024-03-11T01:10:17.791Z,7.80
2024-03-11T01:12:45.130Z,7.90
2024-03-11T01:15:12.611Z,7.90
2024-03-11T01:17:40.133Z,7.80
2024-03-11T01:20:12.443Z,7.80
2024-03-11T01:22:41.075Z,7.80
2024-03-11T01:25:10.109Z,7.60
2024-03-11T01:27:36.984Z,7.50
2024-03-11T01:30:04.936Z,7.60
2024-03-11T01:32:31.785Z,7.50
2024-03-11T01:34:59.714Z,7.50
2024-03-11T01:37:26.836Z,7.60
2024-03-11T01:39:53.662Z,7.70
2024-03-11T01:42:20.684Z,7.60
2024-03-11T01:44:51.209Z,7.70
2024-03-11T01:47:24.850Z,7.50
2024-03-11T01:49:53.780Z,7.50
2024-03-11T01:52:25.187Z,7.50
2024-03-11T01:54:53.285Z,7.60
2024-03-11T01:57:20.300Z,7.40
2024-03-11T01:59:47.108Z,7.30
2024-03-11T02:02:15.000Z,7.20
2024-03-11T02:04:46.574Z,7.20
2024-03-11T02:07:14.714Z,7.30
2024-03-11T02:09:42.334Z,7.30
2024-03-11T02:12:10.427Z,7.40
2024-03-11T02:14:37.443Z,7.20
2024-03-11T02:17:05.712Z,7.30
2024-03-11T02:19:32.752Z,7.30
2024-03-11T02:21:59.573Z,7.30
2024-03-11T02:24:26.656Z,7.30
2024-03-11T02:26:53.451Z,7.40
2024-03-11T02:29:20.641Z,7.40
2024-03-11T02:31:50.449Z,7.40
2024-03-11T02:34:17.427Z,7.50
2024-03-11T02:36:50.070Z,7.50
2024-03-11T02:39:17.704Z,7.50
2024-03-11T02:41:45.207Z,7.60
2024-03-11T02:44:16.168Z,7.60
2024-03-11T02:46:43.449Z,7.60
2024-03-11T02:49:11.057Z,7.60
2024-03-11T02:51:39.821Z,7.60
2024-03-11T02:54:07.079Z,7.60
2024-03-11T02:56:34.230Z,7.60
2024-03-11T02:59:01.410Z,7.60
2024-03-11T03:01:31.269Z,7.60
2024-03-11T03:03:58.287Z,7.60
2024-03-11T03:06:25.169Z,7.60
2024-03-11T03:08:51.979Z,7.60
2024-03-11T03:11:18.781Z,7.70
2024-03-11T03:13:45.536Z,7.60
2024-03-11T03:16:12.264Z,7.60
2024-03-11T03:18:40.320Z,7.50
2024-03-11T03:21:07.738Z,7.50
2024-03-11T03:23:34.607Z,7.50
2024-03-11T03:26:01.431Z,7.60
2024-03-11T03:28:28.177Z,7.60
2024-03-11T03:30:59.334Z,7.60
2024-03-11T03:33:28.952Z,7.50
2024-03-11T03:35:56.971Z,7.50
2024-03-11T03:38:23.987Z,7.50
2024-03-11T03:40:51.002Z,7.40
2024-03-11T03:43:17.742Z,7.40
2024-03-11T03:45:45.573Z,7.40
2024-03-11T03:48:12.535Z,7.50
2024-03-11T03:50:39.402Z,7.40
2024-03-11T03:53:09.396Z,7.40
2024-03-11T03:55:38.453Z,7.50
2024-03-11T03:58:05.296Z,7.50
2024-03-11T04:00:32.092Z,7.50
2024-03-11T04:02:59.244Z,7.50
2024-03-11T04:05:27.460Z,7.60
2024-03-11T04:07:54.395Z,7.70
2024-03-11T04:10:21.521Z,7.60
2024-03-11T04:12:49.974Z,7.60
2024-03-11T04:15:22.462Z,7.60
2024-03-11T04:17:50.222Z,7.50
2024-03-11T04:20:17.680Z,7.60
2024-03-11T04:22:45.964Z,7.70
2024-03-11T04:25:20.958Z,7.60
2024-03-11T04:27:48.733Z,7.60
2024-03-11T04:30:17.042Z,7.50
2024-03-11T04:32:45.028Z,7.50
2024-03-11T04:35:12.612Z,7.30
2024-03-11T04:37:39.726Z,7.50
2024-03-11T04:40:08.748Z,7.40
2024-03-11T04:42:35.725Z,7.40
2024-03-11T04:45:02.546Z,7.30
2024-03-11T04:47:29.374Z,7.50
2024-03-11T04:49:56.904Z,7.60
2024-03-11T04:52:23.689Z,7.50
2024-03-11T04:54:50.804Z,7.60
2024-03-11T04:57:17.559Z,7.60
2024-03-11T04:59:44.309Z,7.70
2024-03-11T05:02:11.089Z,7.60
2024-03-11T05:04:37.945Z,7.70
2024-03-11T05:07:04.681Z,7.80
2024-03-11T05:09:31.453Z,7.70
2024-03-11T05:11:59.831Z,7.70
2024-03-11T05:14:26.756Z,7.80
2024-03-11T05:16:56.340Z,7.80
2024-03-11T05:19:23.112Z,7.80
2024-03-11T05:21:49.864Z,7.80
2024-03-11T05:24:17.076Z,7.80
2024-03-11T05:26:44.031Z,7.80
2024-03-11T05:29:14.199Z,7.90
2024-03-11T05:31:41.281Z,7.90
2024-03-11T05:34:08.076Z,7.80
2024-03-11T05:36:34.853Z,7.60
2024-03-11T05:39:01.782Z,7.80
2024-03-11T05:41:28.712Z,7.80
2024-03-11T05:43:55.552Z,7.80
2024-03-11T05:46:22.294Z,7.80
2024-03-11T05:48:49.121Z,7.70
2024-03-11T05:51:15.870Z,7.80
2024-03-11T05:53:42.644Z,7.90
2024-03-11T05:56:12.053Z,7.70
2024-03-11T05:58:39.674Z,7.80
2024-03-11T06:01:06.532Z,7.80
2024-03-11T06:03:33.326Z,7.90
2024-03-11T06:06:00.206Z,7.90
2024-03-11T06:08:29.204Z,7.90
2024-03-11T06:10:56.198Z,7.90
2024-03-11T06:13:22.973Z,7.80
2024-03-11T06:15:49.700Z,7.80
2024-03-11T06:18:16.820Z,7.80
2024-03-11T06:20:43.700Z,7.90
2024-03-11T06:23:10.524Z,7.90
2024-03-11T06:25:37.336Z,7.90
2024-03-11T06:28:05.712Z,7.90
2024-03-11T06:30:35.137Z,7.90
2024-03-11T06:33:02.099Z,8.00
2024-03-11T06:35:29.007Z,8.00
2024-03-11T06:37:55.783Z,8.10
2024-03-11T06:40:23.052Z,8.10
2024-03-11T06:42:50.318Z,8.00
2024-03-11T06:45:17.165Z,7.90
2024-03-11T06:47:45.103Z,7.90
2024-03-11T06:50:14.407Z,8.00
2024-03-11T06:52:41.618Z,8.00
2024-03-11T06:55:11.814Z,8.00
2024-03-11T06:57:39.634Z,8.10
2024-03-11T07:00:18.232Z,8.00
2024-03-11T07:02:49.224Z,8.00
2024-03-11T07:05:16.254Z,7.80
2024-03-11T07:07:43.984Z,7.90
2024-03-11T07:10:12.390Z,8.00
2024-03-11T07:12:44.396Z,8.00
2024-03-11T07:15:11.614Z,7.90
2024-03-11T07:17:39.295Z,8.10
2024-03-11T07:20:09.498Z,8.30
2024-03-11T07:22:36.423Z,8.40
2024-03-11T07:25:17.366Z,8.30
2024-03-11T07:27:48.410Z,8.30
2024-03-11T07:30:15.918Z,8.40
2024-03-11T07:32:43.354Z,8.50
2024-03-11T07:35:10.166Z,8.50
2024-03-11T07:37:41.631Z,8.50
2024-03-11T07:40:12.646Z,8.40
2024-03-11T07:42:40.312Z,8.30
2024-03-11T07:45:11.982Z,8.20
2024-03-11T07:47:42.246Z,8.20
2024-03-11T07:50:10.517Z,8.30
2024-03-11T07:52:38.448Z,8.20
2024-03-11T07:55:05.529Z,8.10
2024-03-11T07:57:32.395Z,8.20
2024-03-11T07:59:59.225Z,8.30
2024-03-11T08:02:26.661Z,8.30
2024-03-11T08:04:56.761Z,8.40
2024-03-11T08:07:23.748Z,8.50
2024-03-11T08:09:50.512Z,8.70
2024-03-11T08:12:17.263Z,8.50
2024-03-11T08:14:45.414Z,8.80
2024-03-11T08:17:12.784Z,9.10
2024-03-11T08:19:39.536Z,8.80
2024-03-11T08:22:06.365Z,8.70
2024-03-11T08:24:33.515Z,8.60
2024-03-11T08:27:00.259Z,8.70
2024-03-11T08:29:28.365Z,8.70
2024-03-11T08:31:55.104Z,8.70
2024-03-11T08:34:22.129Z,8.70
2024-03-11T08:36:48.937Z,8.80
2024-03-11T08:39:15.829Z,9.00
2024-03-11T08:41:42.655Z,9.10
2024-03-11T08:44:11.294Z,9.00
2024-03-11T08:46:38.309Z,9.10
2024-03-11T08:49:05.379Z,9.20
2024-03-11T08:51:32.852Z,9.50
2024-03-11T08:54:00.708Z,9.60
2024-03-11T08:56:29.614Z,10.00
2024-03-11T08:58:57.799Z,10.40
2024-03-11T09:01:24.987Z,10.80
2024-03-11T09:03:51.797Z,11.00
2024-03-11T09:06:18.549Z,11.40
2024-03-11T09:08:45.606Z,11.70
2024-03-11T09:11:12.444Z,11.90
2024-03-11T09:13:41.444Z,11.80
2024-03-11T09:16:08.391Z,12.00
2024-03-11T09:18:35.506Z,11.60
2024-03-11T09:21:04.636Z,11.80
2024-03-11T09:23:31.605Z,11.40
2024-03-11T09:26:02.842Z,11.50
2024-03-11T09:28:30.031Z,11.40
2024-03-11T09:30:58.464Z,11.50
2024-03-11T09:33:25.396Z,11.60
2024-03-11T09:35:52.884Z,11.60
2024-03-11T09:38:20.578Z,11.70
2024-03-11T09:40:49.198Z,11.80
2024-03-11T09:43:18.591Z,12.30
2024-03-11T09:45:46.722Z,12.10
2024-03-11T09:48:13.779Z,11.90
2024-03-11T09:50:43.406Z,11.80
2024-03-11T09:53:14.820Z,12.20
2024-03-11T09:55:45.216Z,12.00
2024-03-11T09:58:20.451Z,12.00
2024-03-11T10:00:50.898Z,12.10
2024-03-11T10:03:25.590Z,11.90
2024-03-11T10:06:00.902Z,11.60
2024-03-11T10:08:28.781Z,11.40
2024-03-11T10:11:15.936Z,11.60
2024-03-11T10:13:43.316Z,11.40
2024-03-11T10:16:25.709Z,11.20
2024-03-11T10:19:04.390Z,11.40
2024-03-11T10:21:35.205Z,11.90
2024-03-11T10:24:02.960Z,12.20
2024-03-11T10:26:42.763Z,12.40
2024-03-11T10:29:12.735Z,12.20
2024-03-11T10:31:42.614Z,12.30
2024-03-11T10:34:12.414Z,12.70
2024-03-11T10:36:46.998Z,12.70
2024-03-11T10:39:27.225Z,13.20
2024-03-11T10:41:54.895Z,13.50
2024-03-11T10:44:30.275Z,13.00
2024-03-11T10:47:23.019Z,13.30
2024-03-11T10:49:55.103Z,13.60
2024-03-11T10:52:24.541Z,13.90
2024-03-11T10:57:46.700Z,13.90
2024-03-11T11:00:21.625Z,13.40
2024-03-11T11:02:56.609Z,13.10
2024-03-11T11:05:34.018Z,13.20
2024-03-11T11:08:03.685Z,13.10
2024-03-11T11:10:31.532Z,12.50
2024-03-11T11:13:00.893Z,12.30
2024-03-11T11:15:29.888Z,12.20
2024-03-11T11:17:57.808Z,12.30
2024-03-11T11:20:35.595Z,12.50
2024-03-11T11:23:03.920Z,12.50
2024-03-11T11:25:41.267Z,12.80
2024-03-11T11:28:29.704Z,12.80
2024-03-11T11:31:25.910Z,12.80
2024-03-11T11:34:00.312Z,12.80
2024-03-11T11:36:33.365Z,13.10
2024-03-11T11:39:15.837Z,13.20
2024-03-11T11:41:47.715Z,13.10
2024-03-11T11:44:30.737Z,13.30
2024-03-11T11:47:14.550Z,13.30
2024-03-11T11:49:44.137Z,12.90
2024-03-11T11:52:12.245Z,12.10
2024-03-11T11:54:39.678Z,11.80
2024-03-11T11:57:18.144Z,11.70
2024-03-11T11:59:46.200Z,11.50
2024-03-11T12:02:27.197Z,11.10
2024-03-11T12:04:57.752Z,11.10
2024-03-11T12:07:26.592Z,11.20
2024-03-11T12:09:55.433Z,11.40
2024-03-11T12:12:34.405Z,11.60
2024-03-11T12:15:07.313Z,11.90
2024-03-11T12:17:34.651Z,12.00
2024-03-11T12:20:26.384Z,12.10
2024-03-11T12:22:56.620Z,11.70
2024-03-11T12:25:23.864Z,11.20
2024-03-11T12:28:02.838Z,10.80
2024-03-11T12:30:39.440Z,10.70
2024-03-11T12:33:07.906Z,10.40
2024-03-11T12:35:44.818Z,10.70
2024-03-11T12:38:14.772Z,11.10
2024-03-11T12:40:44.911Z,11.80
2024-03-11T12:43:24.257Z,12.10
2024-03-11T12:45:54.295Z,12.10
2024-03-11T12:48:24.024Z,12.20
2024-03-11T12:50:56.687Z,12.30
2024-03-11T12:53:28.891Z,12.50
2024-03-11T12:56:03.576Z,12.60
2024-03-11T12:58:31.444Z,12.90
2024-03-11T13:01:03.427Z,13.10
2024-03-11T13:03:31.452Z,13.30
2024-03-11T13:06:01.581Z,13.40
2024-03-11T13:08:30.101Z,13.40
2024-03-11T13:11:05.830Z,12.90
2024-03-11T13:13:33.609Z,13.00
2024-03-11T13:16:00.976Z,13.00
2024-03-11T13:18:30.891Z,13.20
2024-03-11T13:20:59.798Z,13.20
2024-03-11T13:23:26.862Z,13.30
2024-03-11T13:25:53.821Z,13.20
2024-03-11T13:28:20.706Z,13.50
2024-03-11T13:30:50.723Z,13.60
2024-03-11T13:33:19.585Z,13.60
2024-03-11T13:35:46.424Z,13.60
2024-03-11T13:38:13.564Z,13.70
2024-03-11T13:40:40.368Z,13.70
2024-03-11T13:43:12.723Z,13.50
2024-03-11T13:45:50.965Z,12.80
2024-03-11T13:48:21.462Z,12.10
2024-03-11T13:50:48.704Z,11.90
2024-03-11T13:53:16.528Z,11.70
2024-03-11T13:55:50.365Z,11.70
2024-03-11T13:58:17.932Z,11.60
2024-03-11T14:00:49.054Z,11.30
2024-03-11T14:03:20.528Z,11.20
2024-03-11T14:05:47.835Z,11.20
2024-03-11T14:08:15.022Z,11.40
2024-03-11T14:10:44.315Z,11.90
2024-03-11T14:13:12.864Z,12.10
2024-03-11T14:15:40.162Z,12.30
2024-03-11T14:18:07.452Z,12.60
2024-03-11T14:20:34.411Z,12.80
2024-03-11T14:23:01.907Z,12.90
2024-03-11T14:25:32.637Z,12.60
2024-03-11T14:28:00.312Z,12.70
2024-03-11T14:30:35.262Z,12.80
2024-03-11T14:33:07.832Z,12.50
2024-03-11T14:35:34.912Z,12.40
2024-03-11T14:38:02.021Z,12.30
2024-03-11T14:40:33.519Z,12.20
2024-03-11T14:43:02.184Z,12.10
2024-03-11T14:45:34.975Z,12.00
2024-03-11T14:48:02.754Z,12.20
2024-03-11T14:50:37.293Z,12.60
2024-03-11T14:53:10.118Z,12.70
2024-03-11T14:55:38.065Z,12.50
2024-03-11T14:58:09.331Z,12.60
2024-03-11T15:00:37.651Z,12.30
2024-03-11T15:03:06.372Z,12.30
2024-03-11T15:05:39.916Z,12.20
2024-03-11T15:08:08.719Z,12.10
2024-03-11T15:10:35.742Z,12.00
2024-03-11T15:13:04.237Z,12.00
2024-03-11T15:15:32.571Z,12.10
2024-03-11T15:18:01.595Z,12.00
2024-03-11T15:20:29.869Z,12.00
2024-03-11T15:22:56.776Z,12.00
2024-03-11T15:25:26.624Z,11.90
2024-03-11T15:27:54.418Z,12.20
2024-03-11T15:30:22.215Z,12.30
2024-03-11T15:32:50.904Z,12.40
2024-03-11T15:35:17.880Z,12.50
2024-03-11T15:37:44.758Z,12.50
2024-03-11T15:40:12.076Z,12.40
2024-03-11T15:42:40.963Z,12.60
2024-03-11T15:45:12.362Z,12.70
2024-03-11T15:47:42.808Z,12.80
2024-03-11T15:50:20.320Z,13.10
2024-03-11T15:52:50.953Z,13.30
2024-03-11T15:55:18.417Z,13.20
2024-03-11T15:57:45.397Z,13.10
2024-03-11T16:00:19.467Z,12.80
2024-03-11T16:02:51.176Z,12.70
2024-03-11T16:05:18.682Z,12.60
2024-03-11T16:07:47.128Z,12.40
2024-03-11T16:10:15.531Z,12.20
2024-03-11T16:12:52.281Z,12.10
2024-03-11T16:15:20.507Z,11.90
2024-03-11T16:17:48.554Z,11.80
2024-03-11T16:20:28.057Z,11.60
2024-03-11T16:22:56.748Z,11.60
2024-03-11T16:25:27.173Z,11.60
2024-03-11T16:28:00.063Z,11.60
2024-03-11T16:30:30.108Z,11.50
2024-03-11T16:32:58.935Z,11.40
2024-03-11T16:35:28.398Z,11.50
2024-03-11T16:37:59.622Z,11.40
2024-03-11T16:40:27.998Z,11.20
2024-03-11T16:43:01.800Z,11.20
2024-03-11T16:45:28.840Z,11.20
2024-03-11T16:47:59.031Z,11.10
2024-03-11T16:50:29.584Z,11.00
2024-03-11T16:52:56.494Z,11.00
2024-03-11T16:55:28.170Z,11.00
2024-03-11T16:57:58.298Z,10.90
2024-03-11T17:00:29.192Z,10.90
2024-03-11T17:02:56.248Z,10.80
2024-03-11T17:05:25.636Z,10.80
2024-03-11T17:07:58.381Z,10.60
2024-03-11T17:10:32.990Z,10.70
2024-03-11T17:13:04.197Z,10.60
2024-03-11T17:15:35.291Z,10.50
2024-03-11T17:18:02.978Z,10.50
2024-03-11T17:20:42.004Z,10.40
2024-03-11T17:23:14.229Z,10.40
2024-03-11T17:25:41.012Z,10.40
2024-03-11T17:28:16.137Z,10.30
2024-03-11T17:30:44.407Z,10.20
2024-03-11T17:33:15.179Z,10.20
2024-03-11T17:35:46.754Z,10.10
2024-03-11T17:38:14.997Z,10.00
2024-03-11T17:40:45.407Z,10.00
2024-03-11T17:43:14.695Z,9.90
2024-03-11T17:45:45.292Z,9.80
2024-03-11T17:48:17.756Z,9.60
2024-03-11T17:50:45.087Z,9.50
2024-03-11T17:53:15.311Z,9.50
2024-03-11T17:55:42.764Z,9.40
2024-03-11T17:58:12.228Z,9.30
2024-03-11T18:00:41.189Z,9.20
2024-03-11T18:03:08.403Z,9.10
2024-03-11T18:05:36.623Z,8.90
2024-03-11T18:08:05.897Z,8.80
2024-03-11T18:10:34.807Z,8.70
2024-03-11T18:13:04.847Z,8.60
2024-03-11T18:15:31.712Z,8.50
2024-03-11T18:18:00.964Z,8.40
2024-03-11T18:20:29.266Z,8.30
2024-03-11T18:22:56.610Z,8.20
2024-03-11T18:25:25.400Z,8.10
2024-03-11T18:27:57.772Z,8.00
2024-03-11T18:30:29.539Z,7.90
2024-03-11T18:32:57.659Z,7.80
2024-03-11T18:35:28.041Z,7.70
2024-03-11T18:37:57.808Z,7.60
2024-03-11T18:40:25.554Z,7.60
2024-03-11T18:42:53.885Z,7.50
2024-03-11T18:45:36.375Z,7.50
2024-03-11T18:48:03.686Z,7.50
2024-03-11T18:50:31.617Z,7.40
2024-03-11T18:53:01.710Z,7.30
2024-03-11T18:55:32.762Z,7.30
2024-03-11T18:58:01.058Z,7.20
2024-03-11T19:00:30.641Z,7.20
2024-03-11T19:02:58.418Z,7.10
2024-03-11T19:05:26.643Z,7.00
2024-03-11T19:07:54.205Z,7.00
2024-03-11T19:10:23.984Z,6.90
2024-03-11T19:12:53.139Z,6.90
2024-03-11T19:15:23.983Z,6.70
2024-03-11T19:17:51.581Z,6.60
2024-03-11T19:20:26.094Z,6.50
2024-03-11T19:22:57.201Z,6.50
2024-03-11T19:25:25.390Z,6.40
2024-03-11T19:27:52.943Z,6.40
2024-03-11T19:30:29.118Z,6.30
2024-03-11T19:32:57.971Z,6.30
2024-03-11T19:35:24.827Z,6.30
2024-03-11T19:38:27.280Z,6.30
2024-03-11T19:41:11.054Z,6.30
2024-03-11T19:43:56.181Z,6.20
2024-03-11T19:46:32.021Z,6.20
2024-03-11T19:49:17.101Z,6.10
2024-03-11T19:52:22.610Z,6.00
2024-03-11T19:55:08.033Z,6.00
2024-03-11T19:58:11.132Z,5.80
2024-03-11T20:01:22.692Z,5.80
2024-03-11T20:04:02.734Z,5.70
2024-03-11T20:06:53.863Z,5.70
2024-03-11T20:09:51.588Z,5.60
2024-03-11T20:12:37.243Z,5.60
2024-03-11T20:15:30.788Z,5.60
2024-03-11T20:18:21.349Z,5.50
2024-03-11T20:21:26.968Z,5.50
2024-03-11T20:24:19.724Z,5.50
2024-03-11T20:27:14.078Z,5.50
2024-03-11T20:29:54.950Z,5.50
2024-03-11T20:32:35.510Z,5.50
2024-03-11T20:35:03.026Z,5.40
2024-03-11T20:37:31.243Z,5.30
2024-03-11T20:39:58.253Z,5.30
2024-03-11T20:42:25.117Z,5.30
2024-03-11T20:44:52.047Z,5.30
2024-03-11T20:47:19.782Z,5.20
2024-03-11T20:49:46.636Z,5.20
2024-03-11T20:52:17.336Z,5.20
2024-03-11T20:54:44.730Z,5.20
2024-03-11T20:57:11.558Z,5.10
2024-03-11T20:59:40.784Z,5.10
2024-03-11T21:02:09.112Z,5.10
2024-03-11T21:04:37.198Z,5.10
2024-03-11T21:07:06.493Z,5.10
2024-03-11T21:09:36.035Z,5.10
2024-03-11T21:12:03.686Z,5.10
2024-03-11T21:14:31.083Z,5.10
2024-03-11T21:16:59.420Z,4.90
2024-03-11T21:19:37.139Z,4.90
2024-03-11T21:22:07.274Z,4.80
2024-03-11T21:24:51.727Z,4.70
2024-03-11T21:27:24.816Z,4.70
2024-03-11T21:29:55.726Z,4.70
2024-03-11T21:32:26.238Z,4.70
2024-03-11T21:34:53.356Z,4.70
2024-03-11T21:37:21.397Z,4.60
2024-03-11T21:39:56.241Z,4.60
2024-03-11T21:42:23.945Z,4.50
2024-03-11T21:44:50.879Z,4.50
2024-03-11T21:47:23.360Z,4.50
2024-03-11T21:49:51.147Z,4.40
2024-03-11T21:52:18.722Z,4.40
2024-03-11T21:54:47.601Z,4.40
2024-03-11T21:57:14.844Z,4.40
2024-03-11T21:59:47.306Z,4.30
2024-03-11T22:02:15.647Z,4.30
2024-03-11T22:04:42.444Z,4.30
2024-03-11T22:07:12.720Z,4.30
2024-03-11T22:09:40.115Z,4.30
2024-03-11T22:12:08.696Z,4.30
2024-03-11T22:14:38.190Z,4.30
2024-03-11T22:17:05.705Z,4.20
2024-03-11T22:19:32.750Z,4.30
2024-03-11T22:21:59.666Z,4.30
2024-03-11T22:24:26.624Z,4.30
2024-03-11T22:26:54.325Z,4.30
2024-03-11T22:29:21.055Z,4.20
2024-03-11T22:31:50.649Z,4.20
2024-03-11T22:34:18.259Z,4.20
2024-03-11T22:36:46.192Z,4.20
2024-03-11T22:39:13.796Z,4.20
2024-03-11T22:41:42.759Z,4.20
2024-03-11T22:44:09.663Z,4.10
2024-03-11T22:46:37.820Z,4.10
2024-03-11T22:49:09.252Z,4.10
2024-03-11T22:51:41.624Z,4.00
2024-03-11T22:54:09.454Z,4.00
2024-03-11T22:56:38.390Z,4.00
2024-03-11T22:59:07.379Z,3.90
2024-03-11T23:01:35.141Z,3.90
2024-03-11T23:04:06.223Z,3.80
2024-03-11T23:06:36.442Z,3.80
2024-03-11T23:09:08.559Z,3.80
2024-03-11T23:11:35.622Z,3.80
2024-03-11T23:14:05.385Z,3.70
2024-03-11T23:16:32.932Z,3.60
2024-03-11T23:19:04.215Z,3.70
2024-03-11T23:21:31.734Z,3.70
2024-03-11T23:23:59.037Z,3.70
2024-03-11T23:26:28.411Z,3.60
2024-03-11T23:28:56.221Z,3.60
2024-03-11T23:31:25.580Z,3.60
2024-03-11T23:33:53.417Z,3.60
2024-03-11T23:36:23.679Z,3.60
2024-03-11T23:38:51.927Z,3.70
2024-03-11T23:41:19.754Z,3.70
2024-03-11T23:43:48.262Z,3.70
2024-03-11T23:46:16.115Z,3.80
2024-03-11T23:48:46.600Z,3.80
2024-03-11T23:51:13.793Z,3.80
2024-03-11T23:53:40.551Z,3.80
2024-03-11T23:56:09.858Z,3.80
2024-03-11T23:58:39.200Z,3.80
